createdAt,value
2023-04-18T00:01:49.177Z,30.63
2023-04-18T00:04:18.246Z,30.73
2023-04-18T00:06:47.279Z,33.65
2023-04-18T00:09:14.779Z,32.78
2023-04-18T00:11:42.336Z,28.73
2023-04-18T00:14:10.591Z,31.35
2023-04-18T00:16:38.870Z,35.00
2023-04-18T00:19:06.657Z,31.70
2023-04-18T00:21:33.916Z,35.80
2023-04-18T00:24:01.519Z,27.33
2023-04-18T00:26:28.732Z,28.27
2023-04-18T00:28:57.808Z,31.48
2023-04-18T00:31:26.079Z,28.23
2023-04-18T00:33:54.717Z,28.15
2023-04-18T00:36:24.437Z,30.83
2023-04-18T00:38:52.449Z,34.80
2023-04-18T00:41:21.804Z,29.77
2023-04-18T00:43:49.297Z,28.40
2023-04-18T00:46:18.403Z,26.50
2023-04-18T00:48:48.201Z,29.60
2023-04-18T00:51:16.023Z,32.85
2023-04-18T00:53:45.485Z,33.38
2023-04-18T00:56:13.307Z,32.70
2023-04-18T00:58:41.079Z,31.65
2023-04-18T01:01:09.597Z,34.90
2023-04-18T01:03:39.634Z,40.50
2023-04-18T01:06:07.484Z,31.50
2023-04-18T01:08:37.186Z,36.45
2023-04-18T01:11:04.514Z,34.20
2023-04-18T01:13:32.007Z,30.38
2023-04-18T01:15:59.324Z,31.42
2023-04-18T01:18:27.363Z,34.97
2023-04-18T01:20:57.112Z,28.63
2023-04-18T01:23:24.642Z,33.90
2023-04-18T01:25:52.232Z,32.10
2023-04-18T01:28:23.780Z,35.00
2023-04-18T01:30:51.007Z,32.58
2023-04-18T01:33:18.635Z,33.10
2023-04-18T01:35:47.633Z,34.20
2023-04-18T01:38:15.403Z,33.40
2023-04-18T01:40:42.694Z,33.70
2023-04-18T01:43:11.632Z,36.03
2023-04-18T01:45:39.119Z,33.03
2023-04-18T01:48:06.780Z,41.80
2023-04-18T01:50:34.102Z,35.10
2023-04-18T01:53:01.629Z,33.22
2023-04-18T01:55:29.228Z,36.97
2023-04-18T01:57:56.697Z,38.45
2023-04-18T02:00:24.008Z,38.38
2023-04-18T02:02:51.629Z,44.40
2023-04-18T02:05:21.468Z,37.33
2023-04-18T02:07:50.223Z,37.78
2023-04-18T02:10:19.510Z,35.80
2023-04-18T02:12:47.142Z,40.05
2023-04-18T02:15:14.426Z,37.85
2023-04-18T02:17:42.259Z,36.20
2023-04-18T02:20:11.054Z,43.58
2023-04-18T02:22:39.458Z,43.35
2023-04-18T02:25:07.197Z,37.17
2023-04-18T02:27:35.014Z,40.63
2023-04-18T02:30:02.876Z,48.15
2023-04-18T02:32:34.464Z,47.97
2023-04-18T02:35:01.848Z,53.47
2023-04-18T02:37:29.678Z,53.20
2023-04-18T02:39:57.036Z,52.80
2023-04-18T02:42:24.531Z,58.42
2023-04-18T02:44:54.943Z,61.05
2023-04-18T02:47:22.717Z,60.13
2023-04-18T02:49:51.365Z,62.55
2023-04-18T02:52:19.784Z,66.43
2023-04-18T02:54:47.270Z,59.90
2023-04-18T02:57:18.806Z,63.58
2023-04-18T03:00:07.918Z,69.40
2023-04-18T03:02:41.870Z,63.38
2023-04-18T03:05:23.067Z,65.90
2023-04-18T03:07:51.892Z,74.78
2023-04-18T03:10:19.550Z,79.75
2023-04-18T03:12:47.753Z,82.38
2023-04-18T03:15:17.363Z,75.53
2023-04-18T03:17:45.109Z,73.07
2023-04-18T03:20:13.594Z,68.53
2023-04-18T03:22:41.605Z,76.53
2023-04-18T03:25:09.424Z,80.68
2023-04-18T03:27:43.829Z,76.13
2023-04-18T03:30:13.450Z,75.35
2023-04-18T03:32:42.883Z,76.75
2023-04-18T03:35:11.090Z,72.45
2023-04-18T03:37:38.975Z,72.43
2023-04-18T03:40:08.143Z,74.43
2023-04-18T03:42:37.592Z,78.70
2023-04-18T03:45:05.062Z,69.85
2023-04-18T03:47:34.798Z,78.22
2023-04-18T03:50:02.167Z,79.32
2023-04-18T03:52:30.746Z,76.32
2023-04-18T03:54:58.014Z,83.07
2023-04-18T03:57:30.914Z,76.90
2023-04-18T03:59:59.508Z,72.15
2023-04-18T04:02:29.010Z,78.55
2023-04-18T04:04:56.511Z,82.70
2023-04-18T04:07:24.193Z,76.57
2023-04-18T04:09:51.435Z,69.07
2023-04-18T04:12:18.940Z,74.72
2023-04-18T04:14:46.435Z,78.32
2023-04-18T04:17:14.217Z,77.30
2023-04-18T04:19:41.571Z,72.15
2023-04-18T04:22:12.932Z,71.17
2023-04-18T04:24:42.103Z,64.32
2023-04-18T04:27:11.123Z,64.35
2023-04-18T04:29:39.307Z,75.45
2023-04-18T04:32:08.287Z,66.43
2023-04-18T04:34:38.213Z,63.10
2023-04-18T04:37:08.299Z,72.28
2023-04-18T04:39:42.290Z,61.47
2023-04-18T04:42:42.399Z,57.20
2023-04-18T04:45:17.409Z,68.43
2023-04-18T04:47:46.489Z,63.63
2023-04-18T04:50:15.821Z,59.88
2023-04-18T04:52:43.673Z,58.22
2023-04-18T04:55:11.242Z,64.25
2023-04-18T04:57:38.906Z,63.80
2023-04-18T05:00:21.034Z,64.43
2023-04-18T05:02:49.427Z,62.67
2023-04-18T05:05:16.891Z,63.83
2023-04-18T05:07:44.417Z,59.00
2023-04-18T05:10:11.600Z,65.50
2023-04-18T05:12:39.119Z,59.95
2023-04-18T05:15:06.828Z,56.42
2023-04-18T05:17:34.697Z,56.72
2023-04-18T05:20:02.060Z,53.55
2023-04-18T05:22:29.590Z,52.17
2023-04-18T05:24:56.808Z,52.97
2023-04-18T05:27:24.603Z,57.10
2023-04-18T05:29:52.724Z,56.50
2023-04-18T05:32:20.486Z,56.70
2023-04-18T05:34:49.217Z,52.92
2023-04-18T05:37:16.959Z,63.72
2023-04-18T05:39:44.369Z,58.50
2023-04-18T05:42:11.866Z,58.88
2023-04-18T05:44:39.242Z,51.20
2023-04-18T05:47:06.994Z,56.65
2023-04-18T05:49:34.273Z,56.50
2023-04-18T05:52:01.785Z,53.13
2023-04-18T05:54:29.123Z,47.85
2023-04-18T05:56:57.315Z,51.83
2023-04-18T05:59:26.752Z,52.33
2023-04-18T06:01:54.484Z,51.35
2023-04-18T06:04:22.106Z,55.78
2023-04-18T06:06:49.646Z,53.42
2023-04-18T06:09:17.106Z,55.20
2023-04-18T06:11:44.578Z,57.25
2023-04-18T06:14:12.221Z,63.20
2023-04-18T06:16:39.994Z,57.30
2023-04-18T06:19:07.416Z,55.67
2023-04-18T06:21:35.982Z,63.28
2023-04-18T06:24:03.295Z,63.45
2023-04-18T06:26:32.056Z,59.95
2023-04-18T06:28:59.269Z,57.47
2023-04-18T06:31:27.001Z,59.20
2023-04-18T06:33:54.228Z,62.58
2023-04-18T06:36:22.017Z,53.35
2023-04-18T06:38:49.525Z,56.05
2023-04-18T06:41:17.071Z,61.35
2023-04-18T06:43:55.784Z,49.78
2023-04-18T06:46:29.679Z,53.67
2023-04-18T06:48:57.083Z,56.22
2023-04-18T06:51:24.662Z,56.30
2023-04-18T06:53:54.761Z,52.40
2023-04-18T06:56:22.869Z,53.08
2023-04-18T06:58:51.659Z,53.45
2023-04-18T07:01:19.635Z,53.90
2023-04-18T07:03:47.085Z,56.75
2023-04-18T07:06:15.146Z,54.58
2023-04-18T07:08:42.334Z,53.08
2023-04-18T07:11:10.997Z,53.65
2023-04-18T07:13:38.350Z,47.80
2023-04-18T07:16:06.271Z,51.83
2023-04-18T07:18:38.274Z,53.95
2023-04-18T07:21:09.355Z,50.78
2023-04-18T07:23:36.977Z,49.95
2023-04-18T07:26:05.832Z,54.92
2023-04-18T07:28:33.386Z,61.75
2023-04-18T07:31:03.024Z,54.13
2023-04-18T07:33:33.595Z,59.88
2023-04-18T07:36:02.095Z,54.45
2023-04-18T07:38:29.397Z,54.25
2023-04-18T07:40:58.433Z,57.67
2023-04-18T07:43:26.892Z,49.75
2023-04-18T07:45:54.700Z,50.67
2023-04-18T07:48:22.794Z,45.78
2023-04-18T07:50:50.544Z,50.03
2023-04-18T07:53:17.857Z,54.35
2023-04-18T07:55:46.441Z,50.42
2023-04-18T07:58:14.137Z,52.90
2023-04-18T08:00:44.934Z,42.05
2023-04-18T08:03:13.183Z,46.67
2023-04-18T08:05:42.523Z,49.08
2023-04-18T08:08:11.869Z,44.33
2023-04-18T08:10:39.625Z,46.95
2023-04-18T08:13:07.153Z,41.72
2023-04-18T08:15:34.724Z,37.85
2023-04-18T08:18:02.292Z,39.97
2023-04-18T08:20:30.035Z,39.25
2023-04-18T08:23:07.441Z,40.50
2023-04-18T08:25:37.250Z,38.90
2023-04-18T08:28:04.672Z,37.90
2023-04-18T08:30:32.229Z,35.63
2023-04-18T08:33:00.996Z,46.35
2023-04-18T08:35:28.585Z,42.85
2023-04-18T08:37:55.843Z,41.17
2023-04-18T08:40:23.542Z,40.95
2023-04-18T08:42:53.866Z,36.72
2023-04-18T08:45:21.621Z,42.67
2023-04-18T08:47:48.877Z,34.85
2023-04-18T08:50:17.357Z,35.42
2023-04-18T08:52:48.859Z,33.00
2023-04-18T08:55:16.598Z,32.63
2023-04-18T08:57:45.040Z,30.30
2023-04-18T09:00:13.344Z,35.78
2023-04-18T09:02:46.949Z,28.02
2023-04-18T09:05:19.767Z,33.50
2023-04-18T09:10:25.354Z,29.50
2023-04-18T09:12:52.613Z,33.08
2023-04-18T09:15:23.793Z,29.67
2023-04-18T09:17:56.060Z,27.60
2023-04-18T09:20:43.818Z,31.75
2023-04-18T09:23:14.845Z,33.05
2023-04-18T09:25:44.997Z,23.83
2023-04-18T09:28:24.881Z,32.58
2023-04-18T09:30:53.096Z,25.42
2023-04-18T09:33:33.529Z,30.40
2023-04-18T09:36:22.031Z,28.58
2023-04-18T09:38:51.281Z,25.65
2023-04-18T09:41:21.471Z,24.75
2023-04-18T09:43:49.233Z,29.33
2023-04-18T09:46:21.785Z,27.63
2023-04-18T09:51:17.999Z,32.33
2023-04-18T09:53:47.515Z,35.33
2023-04-18T09:56:23.468Z,31.63
2023-04-18T09:58:56.107Z,31.30
2023-04-18T10:01:27.401Z,29.42
2023-04-18T10:03:56.660Z,30.35
2023-04-18T10:06:27.426Z,30.10
2023-04-18T10:08:55.296Z,27.60
2023-04-18T10:11:24.292Z,32.83
2023-04-18T10:13:54.343Z,34.28
2023-04-18T10:16:22.462Z,24.75
2023-04-18T10:18:53.296Z,26.05
2023-04-18T10:21:22.239Z,30.63
2023-04-18T10:23:50.418Z,30.67
2023-04-18T10:26:18.482Z,21.73
2023-04-18T10:28:59.047Z,27.25
2023-04-18T10:31:27.867Z,19.08
2023-04-18T10:36:30.295Z,29.30
2023-04-18T10:39:03.872Z,22.67
2023-04-18T10:41:32.792Z,27.27
2023-04-18T10:44:09.376Z,20.15
2023-04-18T10:46:44.347Z,22.83
2023-04-18T10:49:18.213Z,27.25
2023-04-18T10:51:47.013Z,25.30
2023-04-18T10:54:21.096Z,21.05
2023-04-18T10:56:55.589Z,22.90
2023-04-18T10:59:25.029Z,23.90
2023-04-18T11:01:57.366Z,27.65
2023-04-18T11:04:25.874Z,28.13
2023-04-18T11:06:58.513Z,31.85
2023-04-18T11:12:11.445Z,28.10
2023-04-18T11:14:46.150Z,29.40
2023-04-18T11:17:20.976Z,25.73
2023-04-18T11:19:49.011Z,21.75
2023-04-18T11:22:17.632Z,28.92
2023-04-18T11:24:45.789Z,25.02
2023-04-18T11:27:13.704Z,31.65
2023-04-18T11:29:41.322Z,29.45
2023-04-18T11:32:09.790Z,24.85
2023-04-18T11:34:37.470Z,21.35
2023-04-18T11:37:08.636Z,24.20
2023-04-18T11:39:41.769Z,27.65
2023-04-18T11:42:09.864Z,24.27
2023-04-18T11:44:39.862Z,20.15
2023-04-18T11:47:22.587Z,15.70
2023-04-18T11:52:18.352Z,21.80
2023-04-18T11:54:46.046Z,15.93
2023-04-18T11:57:24.697Z,20.65
2023-04-18T11:59:56.694Z,20.73
2023-04-18T12:02:25.414Z,15.82
2023-04-18T12:04:58.224Z,16.15
2023-04-18T12:07:32.980Z,19.95
2023-04-18T12:10:00.855Z,17.08
2023-04-18T12:12:29.031Z,15.68
2023-04-18T12:15:09.432Z,17.23
2023-04-18T12:17:38.410Z,21.23
2023-04-18T12:20:09.599Z,13.73
2023-04-18T12:22:48.958Z,13.68
2023-04-18T12:25:26.715Z,14.73
2023-04-18T12:27:55.276Z,15.45
2023-04-18T12:30:29.933Z,18.77
2023-04-18T12:33:01.898Z,12.35
2023-04-18T12:35:30.527Z,10.02
2023-04-18T12:37:59.730Z,16.80
2023-04-18T12:40:27.561Z,10.63
2023-04-18T12:42:56.166Z,11.38
2023-04-18T12:45:24.407Z,10.38
2023-04-18T12:47:53.661Z,11.07
2023-04-18T12:50:26.061Z,19.25
2023-04-18T12:52:54.901Z,14.00
2023-04-18T12:55:22.970Z,11.70
2023-04-18T12:57:54.819Z,10.27
2023-04-18T13:00:23.796Z,12.00
2023-04-18T13:02:52.812Z,12.88
2023-04-18T13:05:22.586Z,13.52
2023-04-18T13:07:58.529Z,14.77
2023-04-18T13:10:29.551Z,12.20
2023-04-18T13:12:57.453Z,13.23
2023-04-18T13:15:26.102Z,16.58
2023-04-18T13:17:54.168Z,11.27
2023-04-18T13:20:22.224Z,12.77
2023-04-18T13:22:50.190Z,11.85
2023-04-18T13:25:17.899Z,20.02
2023-04-18T13:27:46.032Z,17.48
2023-04-18T13:30:13.798Z,19.63
2023-04-18T13:32:43.922Z,22.45
2023-04-18T13:35:12.020Z,17.85
2023-04-18T13:37:40.267Z,22.70
2023-04-18T13:40:08.599Z,27.98
2023-04-18T13:42:36.988Z,29.05
2023-04-18T13:45:04.970Z,23.40
2023-04-18T13:47:33.048Z,19.45
2023-04-18T13:50:00.858Z,18.90
2023-04-18T13:52:28.950Z,23.73
2023-04-18T13:54:56.644Z,24.25
2023-04-18T13:57:24.738Z,20.65
2023-04-18T13:59:52.569Z,25.90
2023-04-18T14:02:20.621Z,23.55
2023-04-18T14:04:48.682Z,21.98
2023-04-18T14:07:16.642Z,21.35
2023-04-18T14:09:46.102Z,21.85
2023-04-18T14:12:14.010Z,22.90
2023-04-18T14:14:41.905Z,23.10
2023-04-18T14:17:09.782Z,26.63
2023-04-18T14:19:37.412Z,27.00
2023-04-18T14:22:05.310Z,20.27
2023-04-18T14:24:33.014Z,23.13
2023-04-18T14:27:01.920Z,33.05
2023-04-18T14:29:29.583Z,20.45
2023-04-18T14:32:00.846Z,28.25
2023-04-18T14:34:29.357Z,32.75
2023-04-18T14:36:59.351Z,43.28
2023-04-18T14:39:27.010Z,23.02
2023-04-18T14:41:54.983Z,19.95
2023-04-18T14:44:22.784Z,22.17
2023-04-18T14:46:50.884Z,18.65
2023-04-18T14:49:18.815Z,20.13
2023-04-18T14:51:46.830Z,20.23
2023-04-18T14:54:14.102Z,25.02
2023-04-18T14:56:41.745Z,23.75
2023-04-18T14:59:08.990Z,21.95
2023-04-18T15:01:36.731Z,23.23
2023-04-18T15:04:04.527Z,18.42
2023-04-18T15:06:32.788Z,24.05
2023-04-18T15:09:00.573Z,24.95
2023-04-18T15:11:28.172Z,22.77
2023-04-18T15:13:55.545Z,21.20
2023-04-18T15:16:23.596Z,19.25
2023-04-18T15:18:51.232Z,17.35
2023-04-18T15:21:19.066Z,21.40
2023-04-18T15:23:46.739Z,18.63
2023-04-18T15:26:14.638Z,19.63
2023-04-18T15:28:42.381Z,18.50
2023-04-18T15:31:10.982Z,16.63
2023-04-18T15:33:38.817Z,18.38
2023-04-18T15:36:06.892Z,19.25
2023-04-18T15:38:35.239Z,18.42
2023-04-18T15:41:04.042Z,22.60
2023-04-18T15:43:31.641Z,16.63
2023-04-18T15:45:59.621Z,19.80
2023-04-18T15:48:28.593Z,21.63
2023-04-18T15:50:56.759Z,21.48
2023-04-18T15:53:24.525Z,21.98
2023-04-18T15:55:53.841Z,22.30
2023-04-18T15:58:22.207Z,23.65
2023-04-18T16:00:51.115Z,27.73
2023-04-18T16:03:18.922Z,21.35
2023-04-18T16:05:47.675Z,22.75
2023-04-18T16:08:15.505Z,37.00
2023-04-18T16:10:43.494Z,49.03
2023-04-18T16:13:11.184Z,38.95
2023-04-18T16:15:41.992Z,27.27
2023-04-18T16:18:09.756Z,30.05
2023-04-18T16:20:38.108Z,19.85
2023-04-18T16:23:05.981Z,29.67
2023-04-18T16:25:33.846Z,22.80
2023-04-18T16:28:01.438Z,16.48
2023-04-18T16:30:29.368Z,19.88
2023-04-18T16:32:57.245Z,19.63
2023-04-18T16:35:25.300Z,26.88
2023-04-18T16:37:52.981Z,17.40
2023-04-18T16:40:21.794Z,16.85
2023-04-18T16:42:49.579Z,45.03
2023-04-18T16:45:17.612Z,13.65
2023-04-18T16:47:45.418Z,22.10
2023-04-18T16:50:13.334Z,15.80
2023-04-18T16:52:41.203Z,13.82
2023-04-18T16:55:09.370Z,22.98
2023-04-18T16:57:36.830Z,19.95
2023-04-18T17:00:05.106Z,22.25
2023-04-18T17:02:33.314Z,27.13
2023-04-18T17:05:01.164Z,19.02
2023-04-18T17:07:28.637Z,24.73
2023-04-18T17:09:56.110Z,18.50
2023-04-18T17:12:23.410Z,30.20
2023-04-18T17:14:51.020Z,48.10
2023-04-18T17:17:18.403Z,57.25
2023-04-18T17:19:46.572Z,31.05
2023-04-18T17:22:13.913Z,23.55
2023-04-18T17:24:41.490Z,26.85
2023-04-18T17:27:08.918Z,18.27
2023-04-18T17:29:37.282Z,29.58
2023-04-18T17:32:05.047Z,24.55
2023-04-18T17:34:32.735Z,21.67
2023-04-18T17:37:00.032Z,27.88
2023-04-18T17:39:27.707Z,28.80
2023-04-18T17:41:55.322Z,16.65
2023-04-18T17:44:22.930Z,19.13
2023-04-18T17:46:50.644Z,19.02
2023-04-18T17:49:18.250Z,19.42
2023-04-18T17:51:45.703Z,19.10
2023-04-18T17:54:14.132Z,21.38
2023-04-18T17:56:41.764Z,20.63
2023-04-18T17:59:09.878Z,18.65
2023-04-18T18:01:40.134Z,18.35
2023-04-18T18:04:08.302Z,15.25
2023-04-18T18:06:35.735Z,37.65
2023-04-18T18:09:03.534Z,38.10
2023-04-18T18:11:31.268Z,65.35
2023-04-18T18:13:59.231Z,228.55
2023-04-18T18:16:26.821Z,175.00
2023-04-18T18:18:54.744Z,264.25
2023-04-18T18:21:22.412Z,31.85
2023-04-18T18:23:49.960Z,115.97
2023-04-18T18:26:17.544Z,106.25
2023-04-18T18:28:45.396Z,142.18
2023-04-18T18:31:12.768Z,217.02
2023-04-18T18:33:40.578Z,194.60
2023-04-18T18:36:08.157Z,168.02
2023-04-18T18:38:36.559Z,52.08
2023-04-18T18:41:04.702Z,28.40
2023-04-18T18:43:32.476Z,43.28
2023-04-18T18:46:00.184Z,42.25
2023-04-18T18:48:28.060Z,56.22
2023-04-18T18:50:56.552Z,52.55
2023-04-18T18:53:24.278Z,41.60
2023-04-18T18:55:52.072Z,32.67
2023-04-18T18:58:20.158Z,32.65
2023-04-18T19:00:47.945Z,37.92
2023-04-18T19:03:18.920Z,29.40
2023-04-18T19:05:47.365Z,25.27
2023-04-18T19:08:15.560Z,26.08
2023-04-18T19:10:43.197Z,24.23
2023-04-18T19:13:10.880Z,23.70
2023-04-18T19:15:38.136Z,27.70
2023-04-18T19:18:05.861Z,25.60
2023-04-18T19:20:33.199Z,23.77
2023-04-18T19:23:00.759Z,27.30
2023-04-18T19:25:28.304Z,20.00
2023-04-18T19:27:56.046Z,23.40
2023-04-18T19:30:24.434Z,27.70
2023-04-18T19:32:52.139Z,23.05
2023-04-18T19:35:19.443Z,25.65
2023-04-18T19:37:47.085Z,25.95
2023-04-18T19:40:14.620Z,22.13
2023-04-18T19:42:42.431Z,21.10
2023-04-18T19:45:11.880Z,21.80
2023-04-18T19:47:39.422Z,26.63
2023-04-18T19:50:07.641Z,22.23
2023-04-18T19:52:35.577Z,20.20
2023-04-18T19:55:02.834Z,19.60
2023-04-18T19:57:30.508Z,17.98
2023-04-18T19:59:57.808Z,14.98
2023-04-18T20:02:25.658Z,22.23
2023-04-18T20:04:53.356Z,27.85
2023-04-18T20:07:22.374Z,40.65
2023-04-18T20:09:52.561Z,22.65
2023-04-18T20:12:20.169Z,22.02
2023-04-18T20:14:47.516Z,17.33
2023-04-18T20:17:15.637Z,18.10
2023-04-18T20:19:43.026Z,14.27
2023-04-18T20:22:10.595Z,15.60
2023-04-18T20:24:39.418Z,20.88
2023-04-18T20:27:07.199Z,13.00
2023-04-18T20:29:34.480Z,15.30
2023-04-18T20:32:02.180Z,14.85
2023-04-18T20:34:30.213Z,20.83
2023-04-18T20:36:58.766Z,23.77
2023-04-18T20:39:26.546Z,25.00
2023-04-18T20:41:57.740Z,19.02
2023-04-18T20:44:25.198Z,20.23
2023-04-18T20:46:55.872Z,16.58
2023-04-18T20:49:23.244Z,15.88
2023-04-18T20:51:51.112Z,20.42
2023-04-18T20:54:18.526Z,21.13
2023-04-18T20:56:46.339Z,22.45
2023-04-18T20:59:13.577Z,22.17
2023-04-18T21:01:41.288Z,21.33
2023-04-18T21:04:08.635Z,19.63
2023-04-18T21:06:37.018Z,18.38
2023-04-18T21:09:04.335Z,19.80
2023-04-18T21:11:31.795Z,19.92
2023-04-18T21:14:00.346Z,27.70
2023-04-18T21:16:32.181Z,20.65
2023-04-18T21:18:59.530Z,20.73
2023-04-18T21:21:27.301Z,19.17
2023-04-18T21:23:54.570Z,20.73
2023-04-18T21:26:22.418Z,19.63
2023-04-18T21:29:15.844Z,23.38
2023-04-18T21:31:43.535Z,22.65
2023-04-18T21:34:11.271Z,20.58
2023-04-18T21:36:40.186Z,20.05
2023-04-18T21:39:08.410Z,23.60
2023-04-18T21:41:36.043Z,19.85
2023-04-18T21:44:03.374Z,23.88
2023-04-18T21:46:30.879Z,21.67
2023-04-18T21:48:58.394Z,19.52
2023-04-18T21:51:27.428Z,20.58
2023-04-18T21:53:54.693Z,23.63
2023-04-18T21:56:22.256Z,25.65
2023-04-18T21:58:49.550Z,20.08
2023-04-18T22:01:17.265Z,22.02
2023-04-18T22:03:44.788Z,22.35
2023-04-18T22:06:12.545Z,19.50
2023-04-18T22:08:39.839Z,18.13
2023-04-18T22:11:09.211Z,20.35
2023-04-18T22:13:36.468Z,25.83
2023-04-18T22:16:04.312Z,20.20
2023-04-18T22:18:37.614Z,18.70
2023-04-18T22:21:06.166Z,19.88
2023-04-18T22:23:33.377Z,22.05
2023-04-18T22:26:01.092Z,28.70
2023-04-18T22:28:28.665Z,19.75
2023-04-18T22:30:56.386Z,23.73
2023-04-18T22:33:23.981Z,20.10
2023-04-18T22:35:51.567Z,20.52
2023-04-18T22:38:18.982Z,23.85
2023-04-18T22:40:46.476Z,18.38
2023-04-18T22:43:13.723Z,20.67
2023-04-18T22:45:41.308Z,21.02
2023-04-18T22:48:11.515Z,22.05
2023-04-18T22:50:42.682Z,25.42
2023-04-18T22:53:11.195Z,22.95
2023-04-18T22:55:40.401Z,22.70
2023-04-18T22:58:08.350Z,30.67
2023-04-18T23:00:36.428Z,27.00
2023-04-18T23:03:04.283Z,27.70
2023-04-18T23:05:32.005Z,27.50
2023-04-18T23:08:00.593Z,21.70
2023-04-18T23:10:28.751Z,29.83
2023-04-18T23:12:56.527Z,26.00
2023-04-18T23:15:24.639Z,28.42
2023-04-18T23:17:53.103Z,21.58
2023-04-18T23:20:21.360Z,29.48
2023-04-18T23:22:51.581Z,24.27
2023-04-18T23:25:19.776Z,30.25
2023-04-18T23:27:47.300Z,27.33
2023-04-18T23:30:14.883Z,30.95
2023-04-18T23:32:42.257Z,30.58
2023-04-18T23:35:11.169Z,29.02
2023-04-18T23:37:38.398Z,27.13
2023-04-18T23:40:06.934Z,27.77
2023-04-18T23:42:37.541Z,26.02
2023-04-18T23:45:05.994Z,27.23
2023-04-18T23:47:34.672Z,21.42
2023-04-18T23:50:02.461Z,21.73
2023-04-18T23:52:30.109Z,20.30
2023-04-18T23:55:01.134Z,21.85
2023-04-18T23:57:28.429Z,19.90
2023-04-18T23:59:55.934Z,15.73
